Time;durP1;ratioP1;P1;durP2;ratioP2;P2;SDS_P1;SDS_P2;PMS_P1;PMS_P2;Temp;Humidity;BMP_temperature;BMP_pressure;BME280_temperature;BME280_humidity;BME280_pressure;Samples;Min_cycle;Max_cycle;Signal;HPM_P1;HPM_P2
2022/04/14 00:01:02;;;;;;;24.38;7.47;;;;;;;;;;5012337;28;20061;-41
2022/04/14 00:03:29;;;;;;;27.52;7.85;;;;;;;;;;5012324;28;20033;-44
2022/04/14 00:05:56;;;;;;;31.10;8.02;;;;;;;;;;5012220;28;20040;-41
2022/04/14 00:08:23;;;;;;;27.98;7.78;;;;;;;;;;5011921;28;20037;-40
2022/04/14 00:10:50;;;;;;;27.58;8.02;;;;;;;;;;5008686;28;20030;-41
2022/04/14 00:13:17;;;;;;;26.48;7.97;;;;;;;;;;4994089;28;20415;-39
2022/04/14 00:15:44;;;;;;;34.33;7.97;;;;;;;;;;4994525;28;20038;-42
2022/04/14 00:18:11;;;;;;;27.00;7.50;;;;;;;;;;5011573;28;20030;-42
2022/04/14 00:20:38;;;;;;;21.05;6.60;;;;;;;;;;5011793;28;20033;-43
2022/04/14 00:23:05;;;;;;;23.40;6.75;;;;;;;;;;5012640;28;20041;-38
2022/04/14 00:25:32;;;;;;;28.88;7.68;;;;;;;;;;5010572;28;20025;-42
2022/04/14 00:27:59;;;;;;;17.83;6.88;;;;;;;;;;5010804;28;20025;-43
2022/04/14 00:30:26;;;;;;;25.15;7.55;;;;;;;;;;5009903;28;20034;-40
2022/04/14 00:32:53;;;;;;;26.80;7.47;;;;;;;;;;5007893;28;20077;-42
2022/04/14 00:35:20;;;;;;;20.60;6.35;;;;;;;;;;4993146;28;20032;-44
2022/04/14 00:37:47;;;;;;;27.55;7.68;;;;;;;;;;5010378;28;20046;-39
2022/04/14 00:40:14;;;;;;;26.42;7.68;;;;;;;;;;5009888;28;20030;-37
2022/04/14 00:42:41;;;;;;;25.85;9.02;;;;;;;;;;5011195;28;20056;-44
2022/04/14 00:45:09;;;;;;;27.98;12.95;;;;;;;;;;5012201;28;20033;-38
2022/04/14 00:47:36;;;;;;;39.25;15.82;;;;;;;;;;5010870;28;20025;-38
2022/04/14 00:50:04;;;;;;;70.93;19.60;;;;;;;;;;5008273;28;20033;-36
2022/04/14 00:52:31;;;;;;;67.90;26.27;;;;;;;;;;5010125;28;20036;-38
2022/04/14 00:54:58;;;;;;;84.68;33.55;;;;;;;;;;5010196;28;20041;-40
2022/04/14 00:57:25;;;;;;;96.53;36.25;;;;;;;;;;5010435;28;20084;-42
2022/04/14 00:59:52;;;;;;;92.90;35.10;;;;;;;;;;5009720;28;20037;-40
2022/04/14 01:02:20;;;;;;;98.43;36.38;;;;;;;;;;5009284;28;20034;-42
2022/04/14 01:04:47;;;;;;;101.88;35.13;;;;;;;;;;5010165;28;20480;-42
2022/04/14 01:07:15;;;;;;;84.90;30.98;;;;;;;;;;5011503;28;20025;-43
2022/04/14 01:09:42;;;;;;;72.95;31.70;;;;;;;;;;5011599;28;20038;-43
2022/04/14 01:12:10;;;;;;;87.68;30.77;;;;;;;;;;5011308;28;20117;-41
2022/04/14 01:14:39;;;;;;;81.10;31.40;;;;;;;;;;5010930;28;20543;-42
2022/04/14 01:17:07;;;;;;;71.60;28.65;;;;;;;;;;5011582;28;20037;-42
2022/04/14 01:19:35;;;;;;;66.97;28.17;;;;;;;;;;5011137;28;20046;-42
2022/04/14 01:22:02;;;;;;;63.08;25.80;;;;;;;;;;4994010;28;20030;-44
2022/04/14 01:24:30;;;;;;;64.82;26.25;;;;;;;;;;5010204;28;20038;-41
2022/04/14 01:27:00;;;;;;;58.70;26.58;;;;;;;;;;5010043;28;20168;-44
2022/04/14 01:29:29;;;;;;;73.05;25.98;;;;;;;;;;5006741;28;20053;-41
2022/04/14 01:31:57;;;;;;;61.63;26.55;;;;;;;;;;5006010;28;20057;-42
2022/04/14 01:34:24;;;;;;;67.03;25.20;;;;;;;;;;5007692;28;20137;-51
2022/04/14 01:36:51;;;;;;;66.72;24.23;;;;;;;;;;5008099;28;20034;-41
2022/04/14 01:39:18;;;;;;;62.20;24.05;;;;;;;;;;5008316;28;20029;-44
2022/04/14 01:41:45;;;;;;;54.13;23.02;;;;;;;;;;5007414;28;20037;-41
2022/04/14 01:44:12;;;;;;;59.42;23.55;;;;;;;;;;4991259;28;20033;-41
2022/04/14 01:46:41;;;;;;;54.30;22.40;;;;;;;;;;5008875;28;20042;-41
2022/04/14 01:49:11;;;;;;;54.92;22.48;;;;;;;;;;5008552;28;20041;-42
2022/04/14 01:51:38;;;;;;;53.33;21.80;;;;;;;;;;5007607;28;20049;-43
2022/04/14 01:54:06;;;;;;;50.15;21.00;;;;;;;;;;5008620;28;20144;-43
2022/04/14 01:56:33;;;;;;;47.60;19.85;;;;;;;;;;5009628;28;20491;-44
2022/04/14 01:59:00;;;;;;;51.85;20.02;;;;;;;;;;5009655;28;20084;-41
2022/04/14 02:01:28;;;;;;;50.50;20.77;;;;;;;;;;5004124;28;20061;-43
2022/04/14 02:03:57;;;;;;;45.92;19.60;;;;;;;;;;4994018;28;20459;-43
2022/04/14 02:06:24;;;;;;;51.38;20.20;;;;;;;;;;5010310;28;20612;-41
2022/04/14 02:08:51;;;;;;;44.83;19.20;;;;;;;;;;5010288;28;20404;-44
2022/04/14 02:11:18;;;;;;;46.00;18.20;;;;;;;;;;5009567;28;20067;-38
2022/04/14 02:13:45;;;;;;;43.35;18.80;;;;;;;;;;5008788;28;20029;-44
2022/04/14 02:16:12;;;;;;;44.67;20.83;;;;;;;;;;5015707;28;20041;-39
2022/04/14 02:18:39;;;;;;;48.33;20.63;;;;;;;;;;5008567;28;20061;-40
2022/04/14 02:21:06;;;;;;;50.00;21.33;;;;;;;;;;5009508;28;20033;-45
2022/04/14 02:23:33;;;;;;;50.80;21.33;;;;;;;;;;5007673;28;20385;-41
2022/04/14 02:26:00;;;;;;;43.78;19.67;;;;;;;;;;5008736;28;20435;-49
2022/04/14 02:28:27;;;;;;;43.88;19.95;;;;;;;;;;5009609;28;20034;-42
2022/04/14 02:30:54;;;;;;;48.50;20.92;;;;;;;;;;5006599;28;20045;-40
2022/04/14 02:33:21;;;;;;;44.45;20.05;;;;;;;;;;5009289;28;20054;-43
2022/04/14 02:35:48;;;;;;;42.75;20.23;;;;;;;;;;5008999;28;20038;-45
2022/04/14 02:38:15;;;;;;;42.08;20.35;;;;;;;;;;5009163;28;20048;-43
2022/04/14 02:40:42;;;;;;;49.42;21.55;;;;;;;;;;5009573;28;20133;-41
2022/04/14 02:43:09;;;;;;;46.50;19.00;;;;;;;;;;5008916;28;20551;-40
2022/04/14 02:45:36;;;;;;;43.33;18.35;;;;;;;;;;5009615;28;20033;-41
2022/04/14 02:48:03;;;;;;;44.85;19.98;;;;;;;;;;5005113;28;20549;-44
2022/04/14 02:50:30;;;;;;;47.33;20.58;;;;;;;;;;4992022;28;20034;-42
2022/04/14 02:52:57;;;;;;;41.03;19.85;;;;;;;;;;5010982;28;20525;-44
2022/04/14 02:55:24;;;;;;;41.47;18.85;;;;;;;;;;5009944;28;20587;-41
2022/04/14 02:57:51;;;;;;;41.30;18.60;;;;;;;;;;5012436;28;20085;-41
2022/04/14 03:00:18;;;;;;;39.28;18.95;;;;;;;;;;5013109;28;20121;-40
2022/04/14 03:02:45;;;;;;;37.97;18.20;;;;;;;;;;5010322;28;20057;-41
2022/04/14 03:05:12;;;;;;;39.80;19.15;;;;;;;;;;5012568;28;20052;-41
2022/04/14 03:07:39;;;;;;;40.08;19.65;;;;;;;;;;5013084;28;20066;-42
2022/04/14 03:10:07;;;;;;;37.47;17.60;;;;;;;;;;5013171;28;20037;-45
2022/04/14 03:12:41;;;;;;;38.13;18.17;;;;;;;;;;5021797;23;20053;-40
2022/04/14 03:15:08;;;;;;;34.97;17.92;;;;;;;;;;5011534;28;20052;-41
2022/04/14 03:17:35;;;;;;;35.85;17.98;;;;;;;;;;5012701;28;20038;-38
2022/04/14 03:20:03;;;;;;;41.25;18.15;;;;;;;;;;5013513;28;20034;-39
2022/04/14 03:22:33;;;;;;;38.40;17.17;;;;;;;;;;5009456;28;20073;-40
2022/04/14 03:25:02;;;;;;;38.13;18.70;;;;;;;;;;5013630;28;20040;-40
2022/04/14 03:27:28;;;;;;;37.03;17.50;;;;;;;;;;5010512;28;20029;-40
2022/04/14 03:29:56;;;;;;;37.28;17.25;;;;;;;;;;5013774;28;20032;-40
2022/04/14 03:32:24;;;;;;;36.83;16.92;;;;;;;;;;5013022;28;20128;-40
2022/04/14 03:34:52;;;;;;;36.60;17.35;;;;;;;;;;5010621;28;20038;-37
2022/04/14 03:37:19;;;;;;;35.75;16.83;;;;;;;;;;5013338;28;20030;-37
2022/04/14 03:39:45;;;;;;;37.05;17.50;;;;;;;;;;5012433;28;20029;-40
2022/04/14 03:42:13;;;;;;;33.78;16.25;;;;;;;;;;5013589;28;20022;-40
2022/04/14 03:44:40;;;;;;;32.58;16.98;;;;;;;;;;5012656;28;20046;-40
2022/04/14 03:47:07;;;;;;;31.63;15.88;;;;;;;;;;5012958;28;20041;-39
2022/04/14 03:49:34;;;;;;;30.95;15.43;;;;;;;;;;5013415;28;20034;-40
2022/04/14 03:52:01;;;;;;;33.22;15.93;;;;;;;;;;5012175;28;20036;-40
2022/04/14 03:54:28;;;;;;;31.95;16.48;;;;;;;;;;5013804;28;20029;-39
2022/04/14 03:56:56;;;;;;;31.02;15.40;;;;;;;;;;5013289;28;20032;-39
2022/04/14 03:59:23;;;;;;;33.05;16.02;;;;;;;;;;5013827;28;20423;-40
2022/04/14 04:01:50;;;;;;;29.88;15.52;;;;;;;;;;5013957;28;20034;-39
2022/04/14 04:04:17;;;;;;;27.80;15.13;;;;;;;;;;5013309;28;20475;-40
2022/04/14 04:06:45;;;;;;;31.50;14.90;;;;;;;;;;5013728;28;20026;-38
2022/04/14 04:09:12;;;;;;;31.75;14.90;;;;;;;;;;5013475;28;20030;-38
2022/04/14 04:11:39;;;;;;;24.55;14.18;;;;;;;;;;5013395;28;20132;-38
2022/04/14 04:14:06;;;;;;;28.98;14.32;;;;;;;;;;4995717;28;20030;-38
2022/04/14 04:16:34;;;;;;;30.50;14.63;;;;;;;;;;5013728;28;20030;-39
2022/04/14 04:19:00;;;;;;;28.45;14.73;;;;;;;;;;5012662;28;20088;-39
2022/04/14 04:21:29;;;;;;;27.52;14.40;;;;;;;;;;5012329;28;20673;-39
2022/04/14 04:23:56;;;;;;;30.65;14.50;;;;;;;;;;5013146;28;20030;-38
2022/04/14 04:26:23;;;;;;;25.63;14.05;;;;;;;;;;5011785;28;20170;-38
2022/04/14 04:28:50;;;;;;;28.25;14.48;;;;;;;;;;5012710;28;20054;-39
2022/04/14 04:31:17;;;;;;;30.73;13.82;;;;;;;;;;5012197;28;20068;-37
2022/04/14 04:33:44;;;;;;;30.60;14.45;;;;;;;;;;5012989;28;20033;-37
2022/04/14 04:36:11;;;;;;;22.58;12.85;;;;;;;;;;4995976;28;20022;-38
2022/04/14 04:38:38;;;;;;;27.00;13.98;;;;;;;;;;5013006;28;20091;-37
2022/04/14 04:41:06;;;;;;;28.00;14.30;;;;;;;;;;5012366;28;20033;-39
2022/04/14 04:43:33;;;;;;;29.55;13.35;;;;;;;;;;5012938;28;20027;-39
2022/04/14 04:45:59;;;;;;;27.00;13.00;;;;;;;;;;5012654;28;20034;-39
2022/04/14 04:48:27;;;;;;;24.25;12.07;;;;;;;;;;5013079;28;20079;-39
2022/04/14 04:50:54;;;;;;;24.85;12.15;;;;;;;;;;5012218;28;20029;-39
2022/04/14 04:53:21;;;;;;;22.48;12.52;;;;;;;;;;5012700;28;20022;-39
2022/04/14 04:55:48;;;;;;;22.42;13.07;;;;;;;;;;5012672;28;20030;-39
2022/04/14 04:58:15;;;;;;;24.40;13.02;;;;;;;;;;5012400;28;20041;-39
2022/04/14 05:00:44;;;;;;;22.23;11.98;;;;;;;;;;5012679;28;20096;-39
2022/04/14 05:03:11;;;;;;;25.63;12.77;;;;;;;;;;5010969;28;20049;-38
2022/04/14 05:05:39;;;;;;;21.88;12.50;;;;;;;;;;5012627;28;20033;-38
2022/04/14 05:08:07;;;;;;;20.55;11.63;;;;;;;;;;5012573;28;20034;-38
2022/04/14 05:10:34;;;;;;;20.85;11.77;;;;;;;;;;5012404;28;20033;-37
2022/04/14 05:13:02;;;;;;;21.80;11.40;;;;;;;;;;5011097;28;20084;-39
2022/04/14 05:15:28;;;;;;;23.27;11.13;;;;;;;;;;5011707;28;20034;-39
2022/04/14 05:17:55;;;;;;;19.80;11.45;;;;;;;;;;5012321;28;20030;-40
2022/04/14 05:20:22;;;;;;;21.48;11.43;;;;;;;;;;5012443;28;20033;-38
2022/04/14 05:22:49;;;;;;;27.08;12.13;;;;;;;;;;5012254;28;20037;-38
2022/04/14 05:25:16;;;;;;;17.73;10.82;;;;;;;;;;5012020;28;20030;-37
2022/04/14 05:27:43;;;;;;;19.83;11.00;;;;;;;;;;5012281;28;20442;-38
2022/04/14 05:30:14;;;;;;;19.30;11.18;;;;;;;;;;5012209;28;20034;-38
2022/04/14 05:32:41;;;;;;;19.00;10.65;;;;;;;;;;5011857;28;20022;-38
2022/04/14 05:35:09;;;;;;;23.33;11.30;;;;;;;;;;5012339;28;20026;-38
2022/04/14 05:37:36;;;;;;;21.42;10.82;;;;;;;;;;5011947;28;20029;-37
2022/04/14 05:40:04;;;;;;;18.67;10.32;;;;;;;;;;5012159;28;20064;-38
2022/04/14 05:42:31;;;;;;;19.65;11.27;;;;;;;;;;5011568;28;20029;-37
2022/04/14 05:44:59;;;;;;;18.83;10.07;;;;;;;;;;5012086;28;20116;-38
2022/04/14 05:47:26;;;;;;;18.90;10.18;;;;;;;;;;5011737;28;20116;-38
2022/04/14 05:49:54;;;;;;;22.25;10.45;;;;;;;;;;4993893;28;20391;-37
2022/04/14 05:52:21;;;;;;;20.48;9.93;;;;;;;;;;5012068;28;20759;-38
2022/04/14 05:54:48;;;;;;;18.20;9.68;;;;;;;;;;5012040;28;20040;-37
2022/04/14 05:57:15;;;;;;;18.20;10.20;;;;;;;;;;5011567;28;20030;-38
2022/04/14 05:59:43;;;;;;;16.23;9.93;;;;;;;;;;4994221;28;20057;-37
2022/04/14 06:02:10;;;;;;;15.98;9.48;;;;;;;;;;5011448;28;20040;-38
2022/04/14 06:04:37;;;;;;;16.42;9.25;;;;;;;;;;5012048;28;20069;-37
2022/04/14 06:07:04;;;;;;;16.00;9.23;;;;;;;;;;4993987;28;20029;-38
2022/04/14 06:09:31;;;;;;;16.02;8.95;;;;;;;;;;5012012;28;20030;-38
2022/04/14 06:11:59;;;;;;;15.75;9.70;;;;;;;;;;5011653;28;20050;-37
2022/04/14 06:14:26;;;;;;;15.95;8.55;;;;;;;;;;5011132;28;20034;-38
2022/04/14 06:16:53;;;;;;;15.93;8.38;;;;;;;;;;5011846;28;20036;-37
2022/04/14 06:19:20;;;;;;;14.55;8.68;;;;;;;;;;5011580;28;20042;-38
2022/04/14 06:21:47;;;;;;;17.30;8.45;;;;;;;;;;5011456;28;20022;-38
2022/04/14 06:24:14;;;;;;;15.65;9.32;;;;;;;;;;5011539;28;20391;-37
2022/04/14 06:26:41;;;;;;;17.40;8.88;;;;;;;;;;5012177;28;20018;-38
2022/04/14 06:29:08;;;;;;;14.63;8.57;;;;;;;;;;5015590;28;20026;-39
2022/04/14 06:31:35;;;;;;;15.48;8.48;;;;;;;;;;5015255;28;20029;-39
2022/04/14 06:34:03;;;;;;;15.00;8.48;;;;;;;;;;5015310;28;20125;-39
2022/04/14 06:36:30;;;;;;;14.68;8.43;;;;;;;;;;5015379;28;20112;-39
2022/04/14 06:38:57;;;;;;;14.25;8.23;;;;;;;;;;5015336;28;20369;-39
2022/04/14 06:41:26;;;;;;;13.65;8.20;;;;;;;;;;5014782;28;20480;-39
2022/04/14 06:43:54;;;;;;;12.45;8.10;;;;;;;;;;5015205;28;20365;-39
2022/04/14 06:46:21;;;;;;;12.55;7.55;;;;;;;;;;5014996;28;20036;-39
2022/04/14 06:48:49;;;;;;;14.63;7.85;;;;;;;;;;5015082;28;20037;-39
2022/04/14 06:51:16;;;;;;;14.48;7.55;;;;;;;;;;5014700;28;20487;-39
2022/04/14 06:53:44;;;;;;;11.25;7.53;;;;;;;;;;5014891;28;20034;-39
2022/04/14 06:56:12;;;;;;;11.52;7.78;;;;;;;;;;5014814;28;20038;-39
2022/04/14 06:58:39;;;;;;;12.50;7.57;;;;;;;;;;5014976;28;20479;-39
2022/04/14 07:01:06;;;;;;;12.60;7.40;;;;;;;;;;5014621;28;20373;-39
2022/04/14 07:03:33;;;;;;;12.85;7.32;;;;;;;;;;5014794;28;20033;-39
2022/04/14 07:06:00;;;;;;;13.20;7.35;;;;;;;;;;5014727;28;20041;-39
2022/04/14 07:08:27;;;;;;;10.45;6.68;;;;;;;;;;5014710;28;20049;-39
2022/04/14 07:10:54;;;;;;;13.57;6.78;;;;;;;;;;5014746;28;20026;-38
2022/04/14 07:13:21;;;;;;;10.60;6.43;;;;;;;;;;5014094;28;20049;-39
2022/04/14 07:15:48;;;;;;;12.98;7.50;;;;;;;;;;5014789;28;20025;-39
2022/04/14 07:18:15;;;;;;;13.05;6.38;;;;;;;;;;5014395;28;20084;-39
2022/04/14 07:20:44;;;;;;;11.57;7.10;;;;;;;;;;5014587;28;20100;-39
2022/04/14 07:23:11;;;;;;;11.48;6.60;;;;;;;;;;5014723;28;20113;-39
2022/04/14 07:25:38;;;;;;;9.93;5.95;;;;;;;;;;4988336;28;20125;-39
2022/04/14 07:28:05;;;;;;;8.90;5.65;;;;;;;;;;5014932;28;20100;-39
2022/04/14 07:30:33;;;;;;;10.90;6.57;;;;;;;;;;5014086;28;20026;-39
2022/04/14 07:33:00;;;;;;;12.48;5.72;;;;;;;;;;5014196;28;20045;-40
2022/04/14 07:35:28;;;;;;;10.63;6.05;;;;;;;;;;4995944;28;20384;-39
2022/04/14 07:37:55;;;;;;;12.85;6.05;;;;;;;;;;5013580;28;20089;-39
2022/04/14 07:40:22;;;;;;;8.10;5.78;;;;;;;;;;5013720;28;20072;-39
2022/04/14 07:42:49;;;;;;;11.43;5.35;;;;;;;;;;5014612;28;20025;-39
2022/04/14 07:45:16;;;;;;;11.00;6.03;;;;;;;;;;5013535;28;20108;-39
2022/04/14 07:47:44;;;;;;;10.00;6.20;;;;;;;;;;5014297;28;20105;-39
2022/04/14 07:50:13;;;;;;;9.27;6.00;;;;;;;;;;5014010;28;20022;-39
2022/04/14 07:52:46;;;;;;;8.50;5.63;;;;;;;;;;5013830;28;20033;-39
2022/04/14 07:55:17;;;;;;;8.40;5.22;;;;;;;;;;5013955;28;20026;-39
2022/04/14 07:57:44;;;;;;;9.80;5.37;;;;;;;;;;5005862;28;20037;-39
2022/04/14 08:00:11;;;;;;;7.82;5.25;;;;;;;;;;5014321;28;20292;-39
2022/04/14 08:02:58;;;;;;;9.75;5.15;;;;;;;;;;5013847;28;20044;-39
2022/04/14 08:05:36;;;;;;;8.55;5.40;;;;;;;;;;5013788;28;20036;-39
2022/04/14 08:08:04;;;;;;;8.00;5.50;;;;;;;;;;5013938;28;20368;-39
2022/04/14 08:10:31;;;;;;;10.07;5.65;;;;;;;;;;5013242;28;20072;-39
2022/04/14 08:12:58;;;;;;;9.23;5.28;;;;;;;;;;5013785;28;20096;-39
2022/04/14 08:15:25;;;;;;;8.88;5.22;;;;;;;;;;5013112;28;20038;-39
2022/04/14 08:17:52;;;;;;;8.07;4.90;;;;;;;;;;5013488;28;20092;-39
2022/04/14 08:20:19;;;;;;;7.15;4.80;;;;;;;;;;5013672;28;20427;-40
2022/04/14 08:22:47;;;;;;;8.32;5.05;;;;;;;;;;5012764;28;20365;-39
2022/04/14 08:25:19;;;;;;;8.10;5.00;;;;;;;;;;5013729;28;20030;-39
2022/04/14 08:27:47;;;;;;;8.02;4.85;;;;;;;;;;5013336;28;20064;-39
2022/04/14 08:30:15;;;;;;;8.75;5.00;;;;;;;;;;5012946;28;20026;-39
2022/04/14 08:32:43;;;;;;;7.85;4.60;;;;;;;;;;5013257;28;20022;-39
2022/04/14 08:35:10;;;;;;;8.25;4.50;;;;;;;;;;5012743;28;20444;-39
2022/04/14 08:37:38;;;;;;;6.95;4.47;;;;;;;;;;5012853;28;20028;-39
2022/04/14 08:40:09;;;;;;;7.28;4.60;;;;;;;;;;5013185;28;20033;-39
2022/04/14 08:42:40;;;;;;;7.88;4.68;;;;;;;;;;5012736;28;20052;-39
2022/04/14 08:45:14;;;;;;;6.63;4.22;;;;;;;;;;5012852;28;20022;-39
2022/04/14 08:47:41;;;;;;;7.07;4.55;;;;;;;;;;5004964;28;20021;-39
2022/04/14 08:50:13;;;;;;;6.88;4.50;;;;;;;;;;5013580;28;20357;-40
2022/04/14 08:52:40;;;;;;;7.00;4.03;;;;;;;;;;5005047;28;20109;-39
2022/04/14 08:55:09;;;;;;;8.55;4.80;;;;;;;;;;5012407;28;20025;-39
2022/04/14 08:57:36;;;;;;;6.85;4.57;;;;;;;;;;5012680;28;20030;-39
2022/04/14 09:00:04;;;;;;;5.53;3.80;;;;;;;;;;5012900;28;20503;-39
2022/04/14 09:02:32;;;;;;;7.35;4.65;;;;;;;;;;5012278;28;20506;-39
2022/04/14 09:04:59;;;;;;;7.78;4.30;;;;;;;;;;5012625;28;20022;-39
2022/04/14 09:07:26;;;;;;;6.53;3.85;;;;;;;;;;5012212;28;20116;-39
2022/04/14 09:09:53;;;;;;;6.57;3.85;;;;;;;;;;5012421;28;20037;-39
2022/04/14 09:12:20;;;;;;;7.78;4.40;;;;;;;;;;5011986;28;20053;-39
2022/04/14 09:14:47;;;;;;;7.45;4.30;;;;;;;;;;5012629;28;20037;-39
2022/04/14 09:17:15;;;;;;;5.82;3.53;;;;;;;;;;5012100;28;20053;-39
2022/04/14 09:19:42;;;;;;;6.95;4.10;;;;;;;;;;5011513;28;20756;-39
2022/04/14 09:22:10;;;;;;;6.97;3.88;;;;;;;;;;5012695;28;20033;-39
2022/04/14 09:24:44;;;;;;;6.15;3.95;;;;;;;;;;5012372;28;20026;-39
2022/04/14 09:27:23;;;;;;;7.00;3.67;;;;;;;;;;5012129;28;20104;-40
2022/04/14 09:29:52;;;;;;;6.15;3.40;;;;;;;;;;5006136;28;20030;-39
2022/04/14 09:32:35;;;;;;;6.72;3.80;;;;;;;;;;5011223;28;20100;-39
2022/04/14 09:35:03;;;;;;;6.97;3.75;;;;;;;;;;5011933;28;20033;-39
2022/04/14 09:37:30;;;;;;;7.30;3.63;;;;;;;;;;5012324;28;20109;-39
2022/04/14 09:40:00;;;;;;;5.70;3.40;;;;;;;;;;5012153;28;20026;-39
2022/04/14 09:42:31;;;;;;;6.07;3.75;;;;;;;;;;5011349;28;20022;-39
2022/04/14 09:45:18;;;;;;;7.82;3.97;;;;;;;;;;5012375;28;20030;-39
2022/04/14 09:47:45;;;;;;;6.35;4.00;;;;;;;;;;5004340;28;20092;-39
2022/04/14 09:50:34;;;;;;;5.22;3.35;;;;;;;;;;5012227;28;20026;-40
2022/04/14 09:53:09;;;;;;;5.80;3.42;;;;;;;;;;5007023;28;20454;-39
2022/04/14 09:55:36;;;;;;;6.05;3.53;;;;;;;;;;5011530;28;20116;-39
2022/04/14 09:58:07;;;;;;;6.28;3.47;;;;;;;;;;5011216;28;20080;-39
2022/04/14 10:00:38;;;;;;;4.45;3.17;;;;;;;;;;5012273;28;20369;-38
2022/04/14 10:03:11;;;;;;;6.90;3.72;;;;;;;;;;5011656;28;20080;-39
2022/04/14 10:05:39;;;;;;;5.47;3.80;;;;;;;;;;5012305;28;20026;-39
2022/04/14 10:08:09;;;;;;;6.60;3.40;;;;;;;;;;5011335;28;20049;-39
2022/04/14 10:10:37;;;;;;;6.72;3.60;;;;;;;;;;5012168;28;20022;-39
2022/04/14 10:13:05;;;;;;;7.57;3.80;;;;;;;;;;5011119;28;20054;-39
2022/04/14 10:15:34;;;;;;;4.78;3.20;;;;;;;;;;5012116;28;20029;-39
2022/04/14 10:18:04;;;;;;;4.85;3.80;;;;;;;;;;5011763;28;20049;-39
2022/04/14 10:20:31;;;;;;;9.80;3.38;;;;;;;;;;5011211;28;20025;-39
2022/04/14 10:23:02;;;;;;;5.70;3.70;;;;;;;;;;5011240;28;20046;-39
2022/04/14 10:25:30;;;;;;;5.22;3.25;;;;;;;;;;5011650;28;20045;-39
2022/04/14 10:28:01;;;;;;;5.03;3.65;;;;;;;;;;5011703;28;20036;-39
2022/04/14 10:30:28;;;;;;;5.20;3.22;;;;;;;;;;5011586;28;20033;-39
2022/04/14 10:32:56;;;;;;;4.63;2.97;;;;;;;;;;5011178;28;20022;-39
2022/04/14 10:35:24;;;;;;;3.80;2.90;;;;;;;;;;5011052;28;20026;-39
2022/04/14 10:38:03;;;;;;;5.20;3.50;;;;;;;;;;5011575;28;20030;-39
2022/04/14 10:40:31;;;;;;;4.38;3.03;;;;;;;;;;5011278;28;20042;-39
2022/04/14 10:42:58;;;;;;;3.90;3.22;;;;;;;;;;5011280;28;20483;-39
2022/04/14 10:45:25;;;;;;;4.95;3.38;;;;;;;;;;5011355;28;20115;-39
2022/04/14 10:47:54;;;;;;;5.45;3.40;;;;;;;;;;5011556;28;20083;-39
2022/04/14 10:50:31;;;;;;;5.60;3.17;;;;;;;;;;5011040;28;20038;-39
2022/04/14 10:53:27;;;;;;;5.45;3.53;;;;;;;;;;5011297;28;20026;-39
2022/04/14 10:55:54;;;;;;;4.65;3.35;;;;;;;;;;4989063;28;20042;-39
2022/04/14 10:58:30;;;;;;;6.38;3.15;;;;;;;;;;5011606;28;20057;-39
2022/04/14 11:00:57;;;;;;;4.88;3.55;;;;;;;;;;5010545;28;20036;-39
2022/04/14 11:03:43;;;;;;;5.15;3.47;;;;;;;;;;5011102;28;20072;-39
2022/04/14 11:06:10;;;;;;;5.78;2.88;;;;;;;;;;5011486;28;20099;-39
2022/04/14 11:08:46;;;;;;;6.20;3.03;;;;;;;;;;5011286;28;20034;-39
2022/04/14 11:11:16;;;;;;;5.45;3.08;;;;;;;;;;5011622;28;20056;-39
2022/04/14 11:13:53;;;;;;;4.65;3.00;;;;;;;;;;5011393;28;20084;-39
2022/04/14 11:16:38;;;;;;;4.82;3.33;;;;;;;;;;5015286;28;20092;-39
2022/04/14 11:19:25;;;;;;;4.00;2.83;;;;;;;;;;5014318;28;20033;-39
2022/04/14 11:22:02;;;;;;;5.05;3.70;;;;;;;;;;5014499;28;20108;-39
2022/04/14 11:24:41;;;;;;;4.07;3.03;;;;;;;;;;5014628;28;20062;-39
2022/04/14 11:27:11;;;;;;;4.72;3.05;;;;;;;;;;5014608;28;20025;-39
2022/04/14 11:29:38;;;;;;;4.35;3.03;;;;;;;;;;5014011;28;20046;-39
2022/04/14 11:32:05;;;;;;;4.55;3.05;;;;;;;;;;5014589;28;20097;-39
2022/04/14 11:34:33;;;;;;;5.63;3.20;;;;;;;;;;5014221;28;20499;-39
2022/04/14 11:37:01;;;;;;;5.32;3.20;;;;;;;;;;5014756;28;20058;-39
2022/04/14 11:39:29;;;;;;;5.55;3.08;;;;;;;;;;5014496;28;20108;-39
2022/04/14 11:42:10;;;;;;;4.15;2.97;;;;;;;;;;5013986;28;20034;-39
2022/04/14 11:44:37;;;;;;;5.32;3.08;;;;;;;;;;5014220;28;20395;-39
2022/04/14 11:47:05;;;;;;;5.13;3.15;;;;;;;;;;5014066;28;20034;-39
2022/04/14 11:49:33;;;;;;;4.63;3.00;;;;;;;;;;5014241;28;20034;-37
2022/04/14 11:52:04;;;;;;;4.82;3.20;;;;;;;;;;5013690;28;20105;-38
2022/04/14 11:54:31;;;;;;;6.68;3.28;;;;;;;;;;5014174;28;20535;-37
2022/04/14 11:57:00;;;;;;;4.97;3.08;;;;;;;;;;5013435;28;20026;-37
2022/04/14 11:59:30;;;;;;;5.65;3.22;;;;;;;;;;5013812;28;20038;-37
2022/04/14 12:02:01;;;;;;;4.47;3.05;;;;;;;;;;5013427;28;20423;-38
2022/04/14 12:04:28;;;;;;;4.18;2.95;;;;;;;;;;5013779;28;20080;-38
2022/04/14 12:06:56;;;;;;;3.88;3.00;;;;;;;;;;5013660;28;20127;-37
2022/04/14 12:09:26;;;;;;;3.60;2.80;;;;;;;;;;5013312;28;20040;-38
2022/04/14 12:11:53;;;;;;;5.70;3.22;;;;;;;;;;5013941;28;20046;-38
2022/04/14 12:14:21;;;;;;;3.90;2.88;;;;;;;;;;5013275;28;20038;-38
2022/04/14 12:16:51;;;;;;;5.30;2.75;;;;;;;;;;5013479;28;20038;-38
2022/04/14 12:19:19;;;;;;;4.03;2.90;;;;;;;;;;5013005;28;20030;-38
2022/04/14 12:22:04;;;;;;;6.18;2.60;;;;;;;;;;5013702;28;20021;-37
2022/04/14 12:24:32;;;;;;;5.68;3.10;;;;;;;;;;5005596;28;20026;-38
2022/04/14 12:26:59;;;;;;;5.90;2.75;;;;;;;;;;5007127;28;20113;-39
2022/04/14 12:29:27;;;;;;;5.47;2.72;;;;;;;;;;4992873;28;20038;-37
2022/04/14 12:31:58;;;;;;;4.05;2.70;;;;;;;;;;4992552;28;20041;-40
2022/04/14 12:34:25;;;;;;;5.72;3.03;;;;;;;;;;4992911;28;20041;-37
2022/04/14 12:37:07;;;;;;;4.80;2.83;;;;;;;;;;4992518;28;20818;-36
2022/04/14 12:39:34;;;;;;;4.00;2.80;;;;;;;;;;4993297;28;20038;-38
2022/04/14 12:42:01;;;;;;;4.60;3.00;;;;;;;;;;4993016;28;20101;-40
2022/04/14 12:44:28;;;;;;;4.78;2.80;;;;;;;;;;4991935;28;20030;-39
2022/04/14 12:46:55;;;;;;;5.78;2.83;;;;;;;;;;4993147;28;20031;-38
2022/04/14 12:49:32;;;;;;;5.65;2.78;;;;;;;;;;4992610;28;20030;-38
2022/04/14 12:52:05;;;;;;;6.28;3.20;;;;;;;;;;4993072;28;20373;-38
2022/04/14 12:54:33;;;;;;;3.83;2.72;;;;;;;;;;4992254;28;20092;-37
2022/04/14 12:57:09;;;;;;;4.55;2.53;;;;;;;;;;4992429;28;20050;-39
2022/04/14 12:59:37;;;;;;;4.22;2.58;;;;;;;;;;4992957;28;20049;-39
2022/04/14 13:02:04;;;;;;;4.50;2.92;;;;;;;;;;4992259;28;20400;-40
2022/04/14 13:04:32;;;;;;;5.57;2.90;;;;;;;;;;5001088;28;20040;-39
2022/04/14 13:07:03;;;;;;;4.03;2.58;;;;;;;;;;5011894;28;20034;-41
2022/04/14 13:09:31;;;;;;;6.47;2.67;;;;;;;;;;5012051;28;20038;-40
2022/04/14 13:11:58;;;;;;;6.15;3.00;;;;;;;;;;5011912;28;20049;-39
2022/04/14 13:14:26;;;;;;;4.53;2.75;;;;;;;;;;5011345;28;20057;-41
2022/04/14 13:16:54;;;;;;;4.57;2.67;;;;;;;;;;5011777;28;20030;-38
2022/04/14 13:19:21;;;;;;;3.85;2.45;;;;;;;;;;5011655;28;20070;-37
2022/04/14 13:21:48;;;;;;;5.47;2.78;;;;;;;;;;5011484;28;20105;-38
2022/04/14 13:24:16;;;;;;;7.53;3.20;;;;;;;;;;5011760;28;20140;-39
2022/04/14 13:26:43;;;;;;;5.43;3.00;;;;;;;;;;5010214;28;20053;-38
2022/04/14 13:29:11;;;;;;;4.28;2.90;;;;;;;;;;5011879;28;20022;-38
2022/04/14 13:31:41;;;;;;;6.05;2.80;;;;;;;;;;5011347;28;20026;-36
2022/04/14 13:34:09;;;;;;;4.57;2.88;;;;;;;;;;5011459;28;20026;-37
2022/04/14 13:36:36;;;;;;;6.70;2.78;;;;;;;;;;5010886;28;20056;-35
2022/04/14 13:39:04;;;;;;;7.25;2.83;;;;;;;;;;5011006;28;20052;-37
2022/04/14 13:41:31;;;;;;;5.85;2.70;;;;;;;;;;5011450;28;20109;-39
2022/04/14 13:43:59;;;;;;;4.90;3.40;;;;;;;;;;5011894;28;20054;-37
2022/04/14 13:46:26;;;;;;;4.82;2.88;;;;;;;;;;5010917;28;20045;-41
2022/04/14 13:48:53;;;;;;;4.43;2.92;;;;;;;;;;5010246;28;20104;-38
2022/04/14 13:51:20;;;;;;;4.75;2.60;;;;;;;;;;5011541;28;20496;-38
2022/04/14 13:53:47;;;;;;;4.13;2.50;;;;;;;;;;5009860;28;20030;-39
2022/04/14 13:56:14;;;;;;;4.97;2.78;;;;;;;;;;5010935;28;20034;-40
2022/04/14 13:58:42;;;;;;;6.30;2.40;;;;;;;;;;4997105;28;20492;-40
2022/04/14 14:01:10;;;;;;;5.43;2.50;;;;;;;;;;4990835;28;20031;-38
2022/04/14 14:03:37;;;;;;;7.00;2.30;;;;;;;;;;4992344;28;20043;-39
2022/04/14 14:06:05;;;;;;;4.90;2.60;;;;;;;;;;5010655;28;20391;-41
2022/04/14 14:08:32;;;;;;;8.25;2.95;;;;;;;;;;5009979;28;20038;-39
2022/04/14 14:10:59;;;;;;;4.72;2.70;;;;;;;;;;5010911;28;20075;-38
2022/04/14 14:13:26;;;;;;;3.97;2.10;;;;;;;;;;5011489;28;20424;-38
2022/04/14 14:15:53;;;;;;;6.13;2.55;;;;;;;;;;5010678;28;20022;-39
2022/04/14 14:18:20;;;;;;;5.18;2.35;;;;;;;;;;5011474;28;20156;-38
2022/04/14 14:20:47;;;;;;;4.90;2.13;;;;;;;;;;5008830;28;20033;-38
2022/04/14 14:23:14;;;;;;;4.53;2.10;;;;;;;;;;4992215;28;20035;-39
2022/04/14 14:25:41;;;;;;;3.08;2.03;;;;;;;;;;4991331;28;20034;-39
2022/04/14 14:28:08;;;;;;;6.63;2.40;;;;;;;;;;4992088;28;20488;-39
2022/04/14 14:30:35;;;;;;;7.57;2.45;;;;;;;;;;4991659;28;20109;-38
2022/04/14 14:33:02;;;;;;;5.07;2.28;;;;;;;;;;4991830;28;20041;-38
2022/04/14 14:35:30;;;;;;;10.20;2.10;;;;;;;;;;4992011;28;20030;-40
2022/04/14 14:37:57;;;;;;;7.32;1.90;;;;;;;;;;4991179;28;20106;-40